Time;durP1;ratioP1;P1;durP2;ratioP2;P2;SDS_P1;SDS_P2;PMS_P1;PMS_P2;Temp;Humidity;BMP_temperature;BMP_pressure;BME280_temperature;BME280_humidity;BME280_pressure;Samples;Min_cycle;Max_cycle;Signal;HPM_P1;HPM_P2
2024/02/24 00:01:09;;;;;;;38.30;27.50;;;;;;;8.98;100.00;99334.08;106473;1257;99965;-80
2024/02/24 00:03:57;;;;;;;36.70;26.30;;;;;;;8.97;100.00;99332.27;106961;1257;100464;-81
2024/02/24 00:06:42;;;;;;;37.60;27.00;;;;;;;8.96;100.00;99332.45;106886;1256;99065;-81
2024/02/24 00:09:28;;;;;;;36.80;25.30;;;;;;;8.95;100.00;99337.75;106880;1257;96622;-80
2024/02/24 00:12:14;;;;;;;33.10;23.80;;;;;;;8.93;100.00;99335.90;106966;1257;96616;-80
2024/02/24 00:15:00;;;;;;;37.10;24.50;;;;;;;8.90;100.00;99326.90;107026;1256;101678;-80
2024/02/24 00:17:45;;;;;;;33.00;24.80;;;;;;;8.88;100.00;99313.92;106499;1257;99060;-80
2024/02/24 00:20:31;;;;;;;33.20;23.30;;;;;;;8.86;100.00;99312.00;106491;1260;97721;-80
2024/02/24 00:23:17;;;;;;;36.70;25.00;;;;;;;8.85;100.00;99306.53;106529;1259;96708;-81
2024/02/24 00:26:02;;;;;;;35.00;23.80;;;;;;;8.85;100.00;99302.27;106979;1253;96374;-79
2024/02/24 00:28:48;;;;;;;31.80;22.60;;;;;;;8.86;100.00;99300.38;106442;1255;99993;-81
2024/02/24 00:31:34;;;;;;;30.90;22.00;;;;;;;8.84;100.00;99299.67;106922;1254;99295;-81
2024/02/24 00:34:20;;;;;;;30.00;22.00;;;;;;;8.82;100.00;99293.75;106975;1254;98967;-80
2024/02/24 00:37:05;;;;;;;27.20;20.20;;;;;;;8.80;100.00;99285.38;106714;1256;97334;-79
2024/02/24 00:39:51;;;;;;;34.60;23.10;;;;;;;8.78;100.00;99276.20;106084;1257;96816;-78
2024/02/24 00:42:37;;;;;;;28.70;21.20;;;;;;;8.78;100.00;99267.23;106320;1257;100063;-81
2024/02/24 00:45:23;;;;;;;32.20;21.90;;;;;;;8.77;100.00;99259.52;107125;1254;99233;-79
2024/02/24 00:48:08;;;;;;;32.10;22.00;;;;;;;8.75;100.00;99260.70;106937;1254;98967;-80
2024/02/24 00:50:54;;;;;;;31.90;21.70;;;;;;;8.74;100.00;99273.30;106869;1254;96523;-80
2024/02/24 00:53:40;;;;;;;40.20;25.40;;;;;;;8.73;100.00;99284.97;106836;1255;96823;-81
2024/02/24 00:56:25;;;;;;;38.30;25.50;;;;;;;8.73;100.00;99286.50;106977;1255;100046;-79
2024/02/24 00:59:11;;;;;;;40.40;26.90;;;;;;;8.71;100.00;99281.77;107000;1254;99834;-81
2024/02/24 01:01:56;;;;;;;43.20;27.20;;;;;;;8.69;100.00;99278.56;106674;1254;98442;-79
2024/02/24 01:04:43;;;;;;;45.80;28.20;;;;;;;8.69;100.00;99276.48;106244;1257;96807;-80
2024/02/24 01:07:28;;;;;;;42.80;27.20;;;;;;;8.68;100.00;99273.11;106300;1268;96482;-80
2024/02/24 01:10:13;;;;;;;43.70;29.10;;;;;;;8.67;100.00;99269.99;106089;1257;100005;-79
2024/02/24 01:13:00;;;;;;;40.80;27.80;;;;;;;8.66;100.00;99262.85;106040;1257;100320;-78
2024/02/24 01:15:45;;;;;;;43.00;27.50;;;;;;;8.65;100.00;99262.64;106269;1254;98361;-79
2024/02/24 01:18:31;;;;;;;38.90;26.80;;;;;;;8.64;100.00;99259.85;106278;1253;97194;-80
2024/02/24 01:21:17;;;;;;;38.20;26.60;;;;;;;8.64;100.00;99253.82;106682;1254;97123;-79
2024/02/24 01:24:03;;;;;;;42.20;27.70;;;;;;;8.64;100.00;99257.27;106460;1254;101302;-78
2024/02/24 01:26:48;;;;;;;37.50;26.10;;;;;;;8.63;100.00;99263.46;106352;1254;100383;-79
2024/02/24 01:29:34;;;;;;;39.60;26.80;;;;;;;8.62;100.00;99268.97;106767;1254;97736;-80
2024/02/24 01:32:20;;;;;;;41.30;26.80;;;;;;;8.61;100.00;99259.64;106909;1257;96548;-80
2024/02/24 01:35:07;;;;;;;38.50;26.20;;;;;;;8.60;100.00;99250.33;106959;1257;96589;-80
2024/02/24 01:37:53;;;;;;;42.40;27.40;;;;;;;8.59;100.00;99243.77;106858;1260;100995;-79
2024/02/24 01:40:38;;;;;;;40.30;27.60;;;;;;;8.59;100.00;99237.88;106937;1257;99108;-81
2024/02/24 01:43:29;;;;;;;38.80;26.80;;;;;;;8.58;100.00;99229.80;106824;1254;97737;-80
2024/02/24 01:46:16;;;;;;;38.80;26.70;;;;;;;8.58;100.00;99224.63;106962;1257;96625;-79
2024/02/24 01:49:01;;;;;;;39.30;27.00;;;;;;;8.57;100.00;99225.41;106360;1254;98225;-80
2024/02/24 01:51:47;;;;;;;37.70;26.40;;;;;;;8.56;100.00;99222.33;106851;1254;101233;-81
2024/02/24 01:54:35;;;;;;;41.60;27.70;;;;;;;8.55;100.00;99213.59;107023;1254;99123;-79
2024/02/24 01:57:24;;;;;;;41.10;28.60;;;;;;;8.54;100.00;99215.73;106439;1254;98947;-81
2024/02/24 02:00:11;;;;;;;46.60;28.20;;;;;;;8.53;100.00;99217.20;107166;1257;96593;-80
2024/02/24 02:03:04;;;;;;;37.20;26.70;;;;;;;8.53;100.00;99209.81;106811;1257;96618;-80
2024/02/24 02:05:49;;;;;;;37.60;26.90;;;;;;;8.52;100.00;99214.70;106956;1254;100001;-80
2024/02/24 02:08:35;;;;;;;39.90;26.80;;;;;;;8.51;100.00;99200.25;107017;1254;99795;-80
2024/02/24 02:11:21;;;;;;;37.60;26.70;;;;;;;8.51;100.00;99192.41;107103;1254;97737;-81
2024/02/24 02:14:08;;;;;;;39.30;27.30;;;;;;;8.51;100.00;99194.09;107202;1254;95854;-81
2024/02/24 02:16:54;;;;;;;38.50;26.80;;;;;;;8.51;100.00;99201.33;107048;1254;97727;-79
2024/02/24 02:19:40;;;;;;;34.80;25.60;;;;;;;8.52;100.00;99209.23;106745;1258;100739;-80
2024/02/24 02:22:26;;;;;;;35.20;25.90;;;;;;;8.53;100.00;99204.59;106654;1254;162673;-80
2024/02/24 02:25:11;;;;;;;41.80;29.70;;;;;;;8.52;100.00;99199.54;106674;1255;107704;-81
2024/02/24 02:27:56;;;;;;;38.20;26.00;;;;;;;8.51;100.00;99194.38;107111;1254;96414;-81
2024/02/24 02:30:42;;;;;;;37.20;27.00;;;;;;;8.50;100.00;99191.50;106466;1256;96614;-80
2024/02/24 02:33:27;;;;;;;46.00;27.30;;;;;;;8.49;100.00;99188.09;106926;1253;101594;-78
2024/02/24 02:36:13;;;;;;;40.00;26.50;;;;;;;8.48;100.00;99187.56;107000;1254;99780;-80
2024/02/24 02:38:58;;;;;;;40.40;26.90;;;;;;;8.48;100.00;99184.98;106352;1257;99060;-80
2024/02/24 02:41:44;;;;;;;39.80;27.90;;;;;;;8.49;100.00;99179.02;106832;1254;96485;-80
2024/02/24 02:44:30;;;;;;;35.90;25.00;;;;;;;8.49;100.00;99179.92;106883;1254;96581;-80
2024/02/24 02:47:15;;;;;;;39.10;26.20;;;;;;;8.49;100.00;99172.08;106437;1257;101415;-79
2024/02/24 02:50:01;;;;;;;35.00;23.80;;;;;;;8.49;100.00;99167.08;106325;1255;99188;-80
2024/02/24 02:52:46;;;;;;;35.80;24.70;;;;;;;8.47;100.00;99164.29;106757;1257;99468;-80
2024/02/24 02:55:32;;;;;;;36.10;23.90;;;;;;;8.46;100.00;99165.93;106199;1254;96612;-78
2024/02/24 02:58:18;;;;;;;31.10;23.00;;;;;;;8.45;100.00;99163.14;106311;1254;97128;-79
2024/02/24 03:01:03;;;;;;;34.90;23.90;;;;;;;8.44;100.00;99164.05;106500;1254;100030;-80
2024/02/24 03:03:49;;;;;;;33.60;23.20;;;;;;;8.43;100.00;99172.91;106484;1253;99702;-79
2024/02/24 03:06:35;;;;;;;33.70;23.20;;;;;;;8.41;100.00;99173.50;106423;1253;99080;-79
2024/02/24 03:09:20;;;;;;;30.30;22.60;;;;;;;8.39;100.00;99176.16;106621;1257;96683;-80
2024/02/24 03:12:06;;;;;;;36.00;24.10;;;;;;;8.37;100.00;99177.27;106888;1254;96507;-80
2024/02/24 03:14:52;;;;;;;29.70;21.40;;;;;;;8.36;100.00;99173.17;106744;1254;101241;-80
2024/02/24 03:17:37;;;;;;;33.60;23.40;;;;;;;8.36;100.00;99171.08;107101;1257;99149;-81
2024/02/24 03:20:23;;;;;;;30.70;21.20;;;;;;;8.36;100.00;99174.81;106524;1254;99547;-78
2024/02/24 03:23:09;;;;;;;31.80;22.00;;;;;;;8.35;100.00;99171.37;106458;1257;97814;-79
2024/02/24 03:25:55;;;;;;;29.40;22.40;;;;;;;8.35;100.00;99158.20;106168;1254;97052;-79
2024/02/24 03:28:41;;;;;;;33.90;22.80;;;;;;;8.36;100.00;99158.27;106279;1253;100022;-78
2024/02/24 03:31:26;;;;;;;33.00;22.00;;;;;;;8.36;100.00;99171.23;106225;1253;99702;-79
2024/02/24 03:34:12;;;;;;;31.40;22.80;;;;;;;8.35;100.00;99165.66;106188;1257;97786;-79
2024/02/24 03:36:58;;;;;;;33.70;23.10;;;;;;;8.34;100.00;99160.05;106651;1253;96691;-81
2024/02/24 03:39:43;;;;;;;34.50;22.50;;;;;;;8.34;100.00;99159.10;106863;1254;96608;-80
2024/02/24 03:42:29;;;;;;;31.40;22.30;;;;;;;8.31;100.00;99155.73;106926;1254;101250;-81
2024/02/24 03:45:15;;;;;;;36.90;24.40;;;;;;;8.28;100.00;99151.02;106346;1259;100375;-79
2024/02/24 03:48:00;;;;;;;30.50;21.10;;;;;;;8.25;100.00;99153.52;106340;1258;97786;-80
2024/02/24 03:50:46;;;;;;;30.70;20.50;;;;;;;8.25;100.00;99144.11;106545;1253;96597;-80
2024/02/24 03:53:32;;;;;;;29.40;21.20;;;;;;;8.25;100.00;99150.71;106749;1254;96592;-79
2024/02/24 03:56:17;;;;;;;33.80;22.80;;;;;;;8.22;100.00;99161.04;106946;1253;101117;-80
2024/02/24 03:59:03;;;;;;;33.00;21.30;;;;;;;8.19;100.00;99161.05;106954;1253;99173;-80
2024/02/24 04:01:48;;;;;;;31.30;21.80;;;;;;;8.17;100.00;99156.86;106802;1255;98858;-80
2024/02/24 04:04:34;;;;;;;32.60;21.80;;;;;;;8.17;100.00;99148.21;106882;1254;97884;-81
2024/02/24 04:07:19;;;;;;;32.60;23.30;;;;;;;8.17;100.00;99147.10;106711;1254;96998;-79
2024/02/24 04:10:05;;;;;;;32.70;22.40;;;;;;;8.17;100.00;99157.08;106355;1254;100075;-79
2024/02/24 04:12:51;;;;;;;30.80;21.80;;;;;;;8.15;100.00;99160.02;106493;1254;99985;-81
2024/02/24 04:15:36;;;;;;;32.00;24.10;;;;;;;8.12;100.00;99159.86;106517;1254;98347;-81
2024/02/24 04:18:22;;;;;;;32.70;21.90;;;;;;;8.11;100.00;99163.02;106399;1256;97239;-81
2024/02/24 04:21:08;;;;;;;34.60;23.90;;;;;;;8.11;100.00;99155.55;106494;1254;97020;-79
2024/02/24 04:23:53;;;;;;;33.70;23.50;;;;;;;8.11;100.00;99158.83;106563;1254;100011;-80
2024/02/24 04:26:39;;;;;;;34.70;24.30;;;;;;;8.09;100.00;99155.69;106507;1254;99854;-81
2024/02/24 04:29:24;;;;;;;40.80;28.30;;;;;;;8.08;100.00;99147.02;106956;1254;99006;-79
2024/02/24 04:32:10;;;;;;;48.20;31.20;;;;;;;8.09;100.00;99151.30;106799;1253;96542;-80
2024/02/24 04:34:56;;;;;;;78.70;47.70;;;;;;;8.08;100.00;99140.58;106803;1253;97138;-79
2024/02/24 04:37:41;;;;;;;68.80;47.30;;;;;;;8.07;100.00;99132.33;106701;1256;100679;-81
2024/02/24 04:40:27;;;;;;;59.20;43.60;;;;;;;8.07;100.00;99128.80;106737;1256;99192;-81
2024/02/24 04:43:12;;;;;;;56.80;41.60;;;;;;;8.07;100.00;99121.66;106691;1253;97795;-81
2024/02/24 04:45:58;;;;;;;41.40;30.60;;;;;;;8.06;100.00;99114.81;106950;1256;96515;-81
2024/02/24 04:48:44;;;;;;;36.80;26.90;;;;;;;8.07;100.00;99108.00;106876;1254;96546;-81
2024/02/24 04:51:30;;;;;;;31.50;22.40;;;;;;;8.07;100.00;99104.27;106902;1256;101193;-82
2024/02/24 04:54:16;;;;;;;28.40;23.00;;;;;;;8.04;100.00;99096.15;106846;1253;99228;-81
2024/02/24 04:57:02;;;;;;;31.70;21.80;;;;;;;8.02;100.00;99090.33;106814;1253;97664;-81
2024/02/24 04:59:48;;;;;;;35.60;24.10;;;;;;;8.02;100.00;99091.89;106722;1254;96593;-80
2024/02/24 05:02:34;;;;;;;31.40;23.10;;;;;;;8.02;100.00;99099.42;106778;1254;97100;-82
2024/02/24 05:05:20;;;;;;;30.40;22.30;;;;;;;8.01;100.00;99101.65;106769;1254;99970;-81
2024/02/24 05:08:06;;;;;;;33.30;22.40;;;;;;;8.01;100.00;99105.54;106951;1254;99115;-81
2024/02/24 05:10:51;;;;;;;29.30;21.90;;;;;;;8.01;100.00;99106.45;106803;1254;99040;-83
2024/02/24 05:13:37;;;;;;;28.90;22.70;;;;;;;8.01;100.00;99105.06;106831;1254;96546;-82
2024/02/24 05:16:22;;;;;;;32.70;23.00;;;;;;;8.01;100.00;99097.10;106770;1254;97051;-80
2024/02/24 05:19:09;;;;;;;30.30;22.30;;;;;;;8.01;100.00;99089.55;106996;1254;99985;-81
2024/02/24 05:21:56;;;;;;;31.80;22.70;;;;;;;8.02;100.00;99082.49;106395;1254;99184;-80
2024/02/24 05:24:42;;;;;;;30.50;22.10;;;;;;;8.01;100.00;99079.05;106343;1254;97750;-81
2024/02/24 05:27:28;;;;;;;27.40;21.20;;;;;;;8.01;100.00;99088.41;106435;1254;96600;-81
2024/02/24 05:30:13;;;;;;;27.00;20.80;;;;;;;8.01;100.00;99085.74;106795;1253;98190;-80
2024/02/24 05:32:59;;;;;;;28.90;21.30;;;;;;;8.02;100.00;99090.05;106881;1254;99974;-80
2024/02/24 05:35:45;;;;;;;31.10;22.30;;;;;;;8.01;100.00;99095.20;106677;1254;99160;-80
2024/02/24 05:38:34;;;;;;;37.10;23.30;;;;;;;8.02;100.00;99093.70;106551;1254;98252;-79
2024/02/24 05:41:19;;;;;;;32.50;23.40;;;;;;;8.03;100.00;99097.02;106442;1253;96545;-80
2024/02/24 05:44:05;;;;;;;30.80;22.70;;;;;;;8.02;100.00;99099.45;106414;1253;96599;-80
2024/02/24 05:46:51;;;;;;;29.80;21.70;;;;;;;8.01;100.00;99100.09;106413;1253;100722;-82
2024/02/24 05:49:37;;;;;;;29.40;22.00;;;;;;;8.00;100.00;99098.52;106398;1253;99093;-80
2024/02/24 05:52:23;;;;;;;33.30;22.30;;;;;;;8.01;100.00;99096.52;106518;1256;97695;-79
2024/02/24 05:55:09;;;;;;;31.60;21.90;;;;;;;8.01;100.00;99097.59;106643;1254;96526;-80
2024/02/24 05:57:56;;;;;;;27.60;19.90;;;;;;;8.02;100.00;99103.54;106592;1254;96568;-80
2024/02/24 06:00:42;;;;;;;27.60;21.40;;;;;;;8.02;100.00;99102.02;106536;1253;100070;-80
2024/02/24 06:03:27;;;;;;;31.20;21.90;;;;;;;8.03;100.00;99096.35;106648;1256;99141;-82
2024/02/24 06:06:13;;;;;;;28.20;19.90;;;;;;;8.05;100.00;99096.40;106896;1254;97792;-80
2024/02/24 06:08:58;;;;;;;27.90;20.00;;;;;;;8.06;100.00;99094.92;106760;1256;96520;-81
2024/02/24 06:11:44;;;;;;;28.00;18.90;;;;;;;8.08;100.00;99100.75;106676;1254;95896;-80
2024/02/24 06:14:30;;;;;;;23.90;17.60;;;;;;;8.08;100.00;99105.70;106919;1254;100993;-80
2024/02/24 06:17:15;;;;;;;23.60;18.40;;;;;;;8.09;100.00;99112.15;106842;1256;100416;-81
2024/02/24 06:20:00;;;;;;;26.50;18.60;;;;;;;8.09;100.00;99104.27;106645;1253;97750;-80
2024/02/24 06:22:47;;;;;;;24.50;18.30;;;;;;;8.10;100.00;99107.39;106605;1255;96599;-79
2024/02/24 06:25:33;;;;;;;26.40;18.10;;;;;;;8.10;100.00;99114.11;106788;1254;97051;-81
2024/02/24 06:28:18;;;;;;;25.20;17.70;;;;;;;8.11;100.00;99113.86;106939;1254;101338;-81
2024/02/24 06:31:04;;;;;;;24.10;17.20;;;;;;;8.12;100.00;99120.39;106754;1254;100427;-80
2024/02/24 06:33:49;;;;;;;29.30;18.20;;;;;;;8.14;100.00;99117.88;106779;1253;97966;-80
2024/02/24 06:36:35;;;;;;;23.20;17.40;;;;;;;8.15;100.00;99110.00;106840;1253;96625;-80
2024/02/24 06:39:21;;;;;;;26.20;17.30;;;;;;;8.17;100.00;99112.30;106842;1256;96546;-81
2024/02/24 06:42:06;;;;;;;22.90;17.20;;;;;;;8.17;100.00;99117.19;106990;1253;101406;-80
2024/02/24 06:44:52;;;;;;;24.90;17.30;;;;;;;8.20;100.00;99114.14;106886;1254;100582;-79
2024/02/24 06:47:37;;;;;;;26.60;16.50;;;;;;;8.21;100.00;99113.61;106989;1253;97822;-79
2024/02/24 06:50:23;;;;;;;24.20;16.70;;;;;;;8.23;100.00;99113.14;106723;1256;97290;-81
2024/02/24 06:53:08;;;;;;;20.40;16.00;;;;;;;8.25;100.00;99103.04;106299;1260;96684;-81
2024/02/24 06:55:54;;;;;;;22.10;16.10;;;;;;;8.26;100.00;99103.77;106874;1254;101262;-80
2024/02/24 06:58:39;;;;;;;22.20;16.40;;;;;;;8.28;100.00;99107.07;106440;1255;99053;-80
2024/02/24 07:01:25;;;;;;;23.30;16.00;;;;;;;8.30;100.00;99105.41;106461;1256;97864;-80
2024/02/24 07:04:11;;;;;;;22.60;15.40;;;;;;;8.32;100.00;99108.32;106523;1254;96613;-81
2024/02/24 07:06:57;;;;;;;22.60;15.40;;;;;;;8.33;100.00;99120.96;106791;1256;97321;-80
2024/02/24 07:09:43;;;;;;;19.30;14.90;;;;;;;8.34;100.00;99126.42;106146;1259;101336;-79
2024/02/24 07:12:29;;;;;;;20.90;15.40;;;;;;;8.36;100.00;99130.44;106404;1254;99062;-79
2024/02/24 07:15:15;;;;;;;21.60;14.90;;;;;;;8.38;100.00;99135.36;106391;1253;97559;-79
2024/02/24 07:18:00;;;;;;;21.40;15.90;;;;;;;8.39;100.00;99132.77;106502;1254;96599;-81
2024/02/24 07:20:47;;;;;;;21.00;15.50;;;;;;;8.39;100.00;99124.52;106516;1254;96587;-79
2024/02/24 07:23:32;;;;;;;20.00;14.30;;;;;;;8.40;100.00;99125.95;106334;1257;100252;-80
2024/02/24 07:26:19;;;;;;;20.10;15.30;;;;;;;8.41;100.00;99128.46;106389;1254;100108;-78
2024/02/24 07:29:05;;;;;;;20.20;14.90;;;;;;;8.43;100.00;99136.27;106317;1260;99103;-80
2024/02/24 07:31:52;;;;;;;20.00;15.10;;;;;;;8.45;100.00;99139.05;106233;1260;96755;-79
2024/02/24 07:34:38;;;;;;;21.00;15.70;;;;;;;8.45;100.00;99137.16;106389;1256;96487;-79
2024/02/24 07:37:24;;;;;;;19.90;13.90;;;;;;;8.46;100.00;99145.28;106423;1253;100015;-81
2024/02/24 07:40:10;;;;;;;22.80;15.90;;;;;;;8.48;100.00;99147.86;107436;1254;100232;-88
2024/02/24 07:42:57;;;;;;;24.60;15.60;;;;;;;8.49;100.00;99154.42;106793;1259;97808;-87
2024/02/24 07:45:44;;;;;;;20.00;15.10;;;;;;;8.49;100.00;99161.73;106856;1254;96671;-89
2024/02/24 07:48:29;;;;;;;20.30;15.70;;;;;;;8.50;100.00;99168.59;106831;1254;95931;-89
2024/02/24 07:51:16;;;;;;;23.30;16.00;;;;;;;8.50;100.00;99172.82;106811;1259;100044;-87
2024/02/24 07:54:02;;;;;;;18.80;14.60;;;;;;;8.52;100.00;99175.62;107047;1254;101087;-89
2024/02/24 07:56:48;;;;;;;19.40;14.20;;;;;;;8.54;100.00;99172.61;107360;1254;108182;-85
2024/02/24 07:59:34;;;;;;;19.90;15.00;;;;;;;8.55;100.00;99181.35;106818;1253;96638;-85
2024/02/24 08:02:19;;;;;;;20.50;16.20;;;;;;;8.58;100.00;99179.41;106249;1254;96599;-82
2024/02/24 08:05:06;;;;;;;19.90;13.70;;;;;;;8.60;100.00;99176.09;106163;1260;101275;-84
2024/02/24 08:07:52;;;;;;;17.80;13.50;;;;;;;8.62;100.00;99176.36;106521;1254;99134;-85
2024/02/24 08:10:37;;;;;;;19.00;13.20;;;;;;;8.65;100.00;99181.61;106447;1253;97876;-84
2024/02/24 08:13:23;;;;;;;23.60;14.90;;;;;;;8.67;100.00;99186.79;106992;1253;96597;-80
2024/02/24 08:16:09;;;;;;;19.70;13.50;;;;;;;8.69;100.00;99191.96;106532;1257;96631;-78
2024/02/24 08:18:55;;;;;;;23.90;14.50;;;;;;;8.72;100.00;99192.54;106618;1254;99981;-79
2024/02/24 08:21:41;;;;;;;18.80;14.70;;;;;;;8.73;100.00;99199.72;106415;1254;99258;-80
2024/02/24 08:24:26;;;;;;;20.70;14.50;;;;;;;8.76;100.00;99200.09;106837;1259;97848;-80
2024/02/24 08:27:15;;;;;;;18.50;14.10;;;;;;;8.79;100.00;99198.80;106740;1257;96527;-87
2024/02/24 08:30:04;;;;;;;16.40;12.40;;;;;;;8.83;100.00;99203.20;106381;1254;96619;-85
2024/02/24 08:32:51;;;;;;;15.40;11.10;;;;;;;8.89;100.00;99201.13;106735;1256;101336;-89
2024/02/24 08:35:37;;;;;;;17.60;12.20;;;;;;;8.96;100.00;99207.61;107119;1254;100263;-89
2024/02/24 08:38:23;;;;;;;15.20;12.40;;;;;;;9.03;100.00;99214.75;106856;1254;97766;-89
2024/02/24 08:41:09;;;;;;;16.10;12.80;;;;;;;9.10;100.00;99216.67;106368;1254;96687;-85
2024/02/24 08:43:55;;;;;;;17.80;11.70;;;;;;;9.16;100.00;99220.33;106412;1257;95820;-86
2024/02/24 08:46:41;;;;;;;16.50;11.80;;;;;;;9.21;100.00;99222.29;106290;1256;100130;-87
2024/02/24 08:49:27;;;;;;;19.60;13.40;;;;;;;9.25;100.00;99226.46;106424;1256;100399;-87
2024/02/24 08:52:13;;;;;;;17.00;12.40;;;;;;;9.30;100.00;99231.39;106424;1253;97815;-87
2024/02/24 08:54:59;;;;;;;15.90;12.70;;;;;;;9.32;100.00;99236.22;106140;1253;96600;-85
2024/02/24 08:57:45;;;;;;;17.70;12.00;;;;;;;9.33;100.00;99242.79;106463;1254;98307;-79
2024/02/24 09:00:31;;;;;;;17.00;12.40;;;;;;;9.34;100.00;99243.03;106411;1256;99864;-79
2024/02/24 09:03:18;;;;;;;16.90;12.70;;;;;;;9.36;100.00;99246.08;106632;1254;100349;-79
2024/02/24 09:06:04;;;;;;;15.80;12.00;;;;;;;9.36;100.00;99254.54;106962;1253;97729;-82
2024/02/24 09:08:49;;;;;;;16.50;11.90;;;;;;;9.37;100.00;99259.56;107034;1259;96651;-81
2024/02/24 09:11:35;;;;;;;16.00;10.70;;;;;;;9.40;100.00;99269.34;107223;1254;95906;-80
2024/02/24 09:14:21;;;;;;;12.60;10.50;;;;;;;9.42;100.00;99280.10;106601;1256;101320;-86
2024/02/24 09:17:06;;;;;;;15.30;10.40;;;;;;;9.44;100.00;99286.02;106881;1259;99153;-88
2024/02/24 09:19:52;;;;;;;13.80;9.80;;;;;;;9.47;100.00;99288.18;106561;1254;99407;-89
2024/02/24 09:22:41;;;;;;;18.50;10.50;;;;;;;9.47;100.00;99297.35;106867;1260;97063;-88
2024/02/24 09:25:37;;;;;;;10.80;8.80;;;;;;;9.50;100.00;99306.09;107132;1254;95782;-89
2024/02/24 09:28:23;;;;;;;10.70;8.60;;;;;;;9.53;100.00;99309.43;107071;1254;100088;-90
2024/02/24 09:31:10;;;;;;;10.00;8.50;;;;;;;9.56;100.00;99319.48;106834;1257;99023;-88
2024/02/24 09:33:56;;;;;;;11.80;8.10;;;;;;;9.60;100.00;99329.34;106609;1254;97661;-88
2024/02/24 09:36:42;;;;;;;10.60;8.10;;;;;;;9.62;100.00;99330.23;106334;1260;97311;-81
2024/02/24 09:39:27;;;;;;;10.60;7.80;;;;;;;9.66;100.00;99328.46;106393;1259;96587;-80
2024/02/24 09:42:13;;;;;;;9.30;7.30;;;;;;;9.71;100.00;99338.55;106225;1253;101920;-82
2024/02/24 09:45:03;;;;;;;8.50;6.00;;;;;;;9.78;100.00;99340.67;106282;1254;99144;-82
2024/02/24 09:47:49;;;;;;;6.90;5.30;;;;;;;9.83;100.00;99344.75;106199;1257;97861;-81
2024/02/24 09:50:35;;;;;;;6.60;4.80;;;;;;;9.87;100.00;99352.56;106190;1257;96584;-81
2024/02/24 09:53:21;;;;;;;5.40;3.90;;;;;;;9.92;100.00;99356.31;106337;1253;97531;-82
2024/02/24 09:56:10;;;;;;;5.40;3.90;;;;;;;9.97;100.00;99364.61;106501;1254;101223;-82
2024/02/24 09:58:56;;;;;;;4.10;3.50;;;;;;;9.99;100.00;99371.39;106363;1254;100162;-82
2024/02/24 10:01:46;;;;;;;4.40;3.50;;;;;;;9.95;100.00;99385.45;106486;1254;97718;-84
2024/02/24 10:04:33;;;;;;;7.20;5.40;;;;;;;9.88;100.00;99405.88;106374;1257;96597;-82
2024/02/24 10:07:19;;;;;;;7.70;6.40;;;;;;;9.80;100.00;99412.29;106491;1254;97136;-83
2024/02/24 10:10:05;;;;;;;9.60;7.10;;;;;;;9.66;100.00;99418.24;106313;1254;101175;-82
2024/02/24 10:12:59;;;;;;;7.90;6.70;;;;;;;9.55;100.00;99417.66;106517;1255;100518;-82
2024/02/24 10:15:45;;;;;;;9.20;6.70;;;;;;;9.50;100.00;99423.22;106432;1253;98460;-81
2024/02/24 10:18:32;;;;;;;7.90;7.10;;;;;;;9.43;100.00;99428.75;106561;1253;97425;-82
2024/02/24 10:21:17;;;;;;;7.80;6.80;;;;;;;9.43;100.00;99440.49;106394;1254;96604;-81
2024/02/24 10:24:03;;;;;;;6.50;5.70;;;;;;;9.45;100.00;99453.98;106306;1257;100075;-83
2024/02/24 10:26:51;;;;;;;4.90;4.40;;;;;;;9.42;100.00;99456.58;106335;1253;99860;-82
2024/02/24 10:29:37;;;;;;;3.80;3.50;;;;;;;9.34;100.00;99461.84;106342;1254;100135;-81
2024/02/24 10:32:24;;;;;;;4.80;3.10;;;;;;;9.31;100.00;99462.63;106552;1254;96615;-81
2024/02/24 10:35:10;;;;;;;3.40;2.70;;;;;;;9.32;100.00;99465.99;106419;1257;96811;-82
2024/02/24 10:37:56;;;;;;;3.30;2.70;;;;;;;9.37;100.00;99475.49;106379;1254;100566;-82
2024/02/24 10:40:42;;;;;;;3.60;3.00;;;;;;;9.40;100.00;99490.45;106461;1253;101500;-85
2024/02/24 10:43:28;;;;;;;5.80;3.10;;;;;;;9.43;100.00;99501.16;106366;1253;98960;-81
2024/02/24 10:46:15;;;;;;;5.00;3.70;;;;;;;9.50;100.00;99512.50;106400;1253;96714;-81
2024/02/24 10:49:01;;;;;;;5.50;4.60;;;;;;;9.50;100.00;99524.14;106417;1254;96644;-82
2024/02/24 10:51:49;;;;;;;5.00;4.00;;;;;;;9.47;100.00;99536.92;106491;1254;101291;-82
2024/02/24 10:54:39;;;;;;;5.30;4.50;;;;;;;9.36;100.00;99546.01;106773;1256;100491;-89
2024/02/24 10:57:26;;;;;;;3.50;3.20;;;;;;;9.28;100.00;99558.13;107078;1254;97797;-88
2024/02/24 11:00:31;;;;;;;4.90;3.40;;;;;;;9.19;100.00;99566.98;106304;1254;96555;-88
2024/02/24 11:03:19;;;;;;;6.60;3.80;;;;;;;9.12;100.00;99569.73;106335;1262;97144;-83
2024/02/24 11:06:07;;;;;;;4.60;3.60;;;;;;;9.11;100.00;99581.44;106718;1254;100038;-88
2024/02/24 11:08:54;;;;;;;3.20;2.90;;;;;;;9.08;100.00;99596.11;105923;1257;99081;-85
2024/02/24 11:11:41;;;;;;;3.10;2.80;;;;;;;8.99;100.00;99604.92;106136;1260;97781;-84
2024/02/24 11:14:27;;;;;;;5.40;3.80;;;;;;;8.91;100.00;99607.80;106435;1253;95911;-85
2024/02/24 11:17:50;;;;;;;6.20;4.40;;;;;;;8.86;100.00;99611.69;106477;1252;97028;-88
2024/02/24 11:20:37;;;;;;;5.80;4.60;;;;;;;8.78;100.00;99617.86;106365;1259;101323;-85
2024/02/24 11:23:32;;;;;;;7.00;4.20;;;;;;;8.74;100.00;99624.32;106794;1256;99055;-86
2024/02/24 11:26:21;;;;;;;7.00;4.80;;;;;;;8.72;100.00;99632.81;106410;1261;97795;-84
2024/02/24 11:29:08;;;;;;;6.10;4.90;;;;;;;8.68;100.00;99634.77;106441;1259;96524;-87
2024/02/24 11:32:05;;;;;;;6.30;4.70;;;;;;;8.63;100.00;99640.95;106273;1253;96622;-86
2024/02/24 11:34:51;;;;;;;10.20;7.40;;;;;;;8.56;100.00;99650.48;106291;1254;102413;-85
2024/02/24 11:37:37;;;;;;;8.80;6.90;;;;;;;8.52;100.00;99656.98;106559;1257;99140;-83
2024/02/24 11:40:23;;;;;;;10.80;7.70;;;;;;;8.53;100.00;99655.88;106431;1257;97783;-84
2024/02/24 11:43:11;;;;;;;10.70;7.40;;;;;;;8.56;100.00;99655.25;106443;1254;96543;-86
2024/02/24 11:45:59;;;;;;;7.40;5.90;;;;;;;8.58;100.00;99658.25;106403;1259;96552;-85
2024/02/24 11:48:44;;;;;;;8.30;5.00;;;;;;;8.56;100.00;99661.40;106403;1254;100118;-83
2024/02/24 11:51:30;;;;;;;6.60;5.10;;;;;;;8.53;100.00;99668.48;106251;1253;100967;-87
2024/02/24 11:54:16;;;;;;;5.60;4.30;;;;;;;8.51;100.00;99670.37;106100;1254;99951;-84
2024/02/24 11:57:03;;;;;;;4.90;4.20;;;;;;;8.50;100.00;99677.26;106385;1254;96596;-87
2024/02/24 11:59:48;;;;;;;6.60;3.80;;;;;;;8.55;100.00;99678.96;106389;1254;97886;-84
2024/02/24 12:02:34;;;;;;;3.20;2.90;;;;;;;8.57;100.00;99684.20;106500;1254;101107;-86
2024/02/24 12:05:20;;;;;;;3.30;2.90;;;;;;;8.56;100.00;99690.91;106412;1254;99797;-82
2024/02/24 12:08:10;;;;;;;3.00;2.70;;;;;;;8.52;100.00;99698.98;106329;1259;97698;-82
2024/02/24 12:10:56;;;;;;;2.60;2.40;;;;;;;8.47;100.00;99695.39;105972;1262;96773;-82
2024/02/24 12:13:44;;;;;;;3.10;2.30;;;;;;;8.44;100.00;99694.67;106221;1257;97102;-82
2024/02/24 12:16:30;;;;;;;3.30;2.70;;;;;;;8.47;100.00;99700.40;106489;1254;100136;-82
2024/02/24 12:19:16;;;;;;;2.30;2.10;;;;;;;8.50;100.00;99704.94;106383;1254;99070;-82
2024/02/24 12:22:06;;;;;;;4.60;3.70;;;;;;;8.52;100.00;99711.73;106261;1254;97967;-84
2024/02/24 12:24:52;;;;;;;7.90;5.40;;;;;;;8.55;100.00;99723.28;106236;1254;98062;-83
2024/02/24 12:27:38;;;;;;;4.30;3.20;;;;;;;8.59;100.00;99730.40;106379;1254;98401;-84
2024/02/24 12:30:24;;;;;;;3.50;2.60;;;;;;;8.56;100.00;99734.86;106195;1254;101970;-84
2024/02/24 12:33:16;;;;;;;2.60;2.00;;;;;;;8.49;100.00;99743.89;106360;1254;99205;-84
2024/02/24 12:36:10;;;;;;;2.20;1.80;;;;;;;8.43;100.00;99752.02;106538;1256;98402;-84
2024/02/24 12:38:56;;;;;;;2.50;2.00;;;;;;;8.38;100.00;99759.02;106745;1254;97953;-86